• Join FlightAware (Why Join?)
  • Login
  • US Flag 
02:47AM EST


 

Airport Tracker/Info


-or-


 

Live Flight TrackerFlight Track Log ✈ SWA757 ✈ 21-Apr-2013 ✈ KSJC - KSAN

Flight Track Log - Related Links

Times and Time Zones

All times are in EDT time to prevent confusion due to time zone crossing. See the SWA757 flight status page for this flight to view local times or setup timezone preferences in your user account.

Time Position Orientation Groundspeed Altitude Reporting Facility
EDT Latitude Longitude Course Direction KTS MPH feet Rate Location/Type
11:12PM 37.3833 -121.9500 345° North 147 169 1,600  Level Northern Cal TRACON
11:13PM 37.4333 -121.9667 345° North 203 234 3,300 2,100 Climbing Northern Cal TRACON
11:14PM 37.4167 -121.9000 107° East 242 278 5,900 2,760 Climbing Northern Cal TRACON
11:15PM 37.3667 -121.8500 142° Southeast 255 293 8,900 2,280 Climbing Northern Cal TRACON
11:17PM 37.2989 -121.7744 138° Southeast 310 357 11,000 2,340 Climbing Oakland Center
11:18PM 37.2044 -121.6681 138° Southeast 379 436 14,200 2,940 Climbing Oakland Center
11:19PM 37.1208 -121.5733 138° Southeast 403 464 17,000 2,460 Climbing Oakland Center
11:20PM 37.0428 -121.4911 140° Southeast 417 480 19,300 2,340 Climbing Oakland Center
11:21PM 36.9525 -121.3864 137° Southeast 440 506 21,800 2,520 Climbing Oakland Center
11:22PM 36.8386 -121.2619 139° Southeast 453 521 24,500 2,160 Climbing Oakland Center
11:23PM 36.7494 -121.1656 139° Southeast 467 537 26,300 1,740 Climbing Oakland Center
11:24PM 36.6497 -121.0550 138° Southeast 479 551 28,100 1,980 Climbing Oakland Center
11:25PM 36.5497 -120.9456 139° Southeast 479 551 30,400 2,040 Climbing Oakland Center
11:26PM 36.4503 -120.8383 139° Southeast 474 545 32,300 1,860 Climbing Oakland Center
11:27PM 36.3531 -120.7292 138° Southeast 472 543 34,200 1,740 Climbing Oakland Center
11:28PM 36.2539 -120.6253 140° Southeast 467 537 35,900 1,320 Climbing Oakland Center
11:29PM 36.1561 -120.5217 139° Southeast 463 533 36,900 540 Climbing Oakland Center
11:30PM 36.0350 -120.3883 138° Southeast 484 557 37,000  Climbing Oakland Center
11:31PM 35.9364 -120.2875 140° Southeast 460 529 37,000  Level Oakland Center
11:32PM 35.8364 -120.1806 139° Southeast 469 540 37,000  Level Oakland Center
11:33PM 35.7367 -120.0725 139° Southeast 472 543 37,000  Level Oakland Center
11:34PM 35.6347 -119.9678 140° Southeast 473 544 37,000  Level Oakland Center
11:35PM 35.5258 -119.8725 145° Southeast 474 545 37,000  Level Oakland Center
11:36PM 35.4164 -119.7800 145° Southeast 474 545 37,000  Level Oakland Center
11:37PM 35.3083 -119.6864 145° Southeast 473 544 37,000  Level Oakland Center
11:38PM 35.1989 -119.5928 145° Southeast 477 549 37,000  Level Oakland Center
11:39PM 35.0906 -119.4997 145° Southeast 474 545 37,000  Level Oakland Center
11:40PM 34.9811 -119.4081 146° Southeast 476 548 37,000  Level Oakland Center
11:41PM 34.8731 -119.3150 145° Southeast 475 547 37,000  Level Oakland Center
11:42PM 34.7628 -119.2233 146° Southeast 477 549 37,000  Level Oakland Center
11:43PM 34.6533 -119.1319 146° Southeast 477 549 37,000  Level Oakland Center
11:44PM 34.5189 -119.0172 145° Southeast 478 550 37,000  Level Los Angeles Center
11:45PM 34.4097 -118.9264 146° Southeast 477 549 37,000  Level Los Angeles Center
11:46PM 34.3044 -118.8297 143° Southeast 476 548 37,000 -180 Level Los Angeles Center
11:47PM 34.2050 -118.7214 138° Southeast 479 551 36,700 -780 Descending Los Angeles Center
11:48PM 34.0844 -118.5944 139° Southeast 481 554 35,500 -1,080 Descending Los Angeles Center
11:49PM 33.9844 -118.4872 138° Southeast 481 554 34,600 -1,320 Descending Los Angeles Center
11:50PM 33.8864 -118.3719 136° Southeast 486 559 32,900 -1,860 Descending Los Angeles Center
11:51PM 33.8042 -118.2722 135° Southeast 486 559 30,800 -2,400 Descending Los Angeles Center
11:52PM 33.7008 -118.1322 132° Southeast 472 543 28,100 -2,400 Descending Los Angeles Center
11:54PM 33.6147 -118.0247 134° Southeast 454 522 25,900 -2,100 Descending Los Angeles Center
11:55PM 33.5339 -117.9217 133° Southeast 427 491 23,800 -1,860 Descending Los Angeles Center
11:56PM 33.4703 -117.8431 134° Southeast 416 479 22,200 -1,980 Descending Los Angeles Center
11:57PM 33.3803 -117.7294 133° Southeast 392 451 19,800 -2,100 Descending Los Angeles Center
11:58PM 33.3092 -117.6369 133° Southeast 382 440 17,900 -2,340 Descending Los Angeles Center
11:58PM 33.2500 -117.5667 135° Southeast 383 441 15,700 -1,800 Descending Southern California TRACON
11:59PM 33.1500 -117.4833 145° Southeast 348 400 14,700 -1,200 Descending Southern California TRACON
12:00AM 33.0833 -117.4167 140° Southeast 320 368 13,300 -1,440 Descending Southern California TRACON
12:01AM 33.0647 -117.4108 165° South 325 374 12,900 -1,740 Descending Los Angeles Center
12:02AM 32.9917 -117.3531 146° Southeast 317 365 11,100 -1,800 Descending Los Angeles Center
12:02AM 32.9500 -117.3167 144° Southeast 300 345 9,900 -1,800 Descending Southern California TRACON
12:03AM 32.8833 -117.2500 140° Southeast 294 338 8,000 -1,680 Descending Southern California TRACON
12:04AM 32.8664 -117.2292 134° Southeast 294 338 7,600 -1,440 Descending Los Angeles Center
12:05AM 32.8183 -117.1567 128° Southeast 283 326 6,100 -1,440 Descending Los Angeles Center
12:05AM 32.8000 -117.1000 111° Southeast 271 312 5,200 -720 Descending Southern California TRACON
12:06AM 32.7833 -117.0167 103° East 243 280 5,000 -120 Descending Southern California TRACON
12:07AM 32.7500 -116.9500 121° Southeast 241 277 5,000 -300 Level Southern California TRACON
12:08AM 32.7000 -116.9167 151° Southeast 232 267 4,500 -720 Descending Southern California TRACON
12:09AM 32.6833 -116.9667 248° West 237 273 3,600 -1,020 Descending Southern California TRACON
12:11AM 32.7000 -117.0500 283° West 204 235 2,400 -1,020 Descending Southern California TRACON
12:11AM 32.7167 -117.1000 292° West 172 198 1,600 -900 Descending Southern California TRACON
12:13AM 32.7167 -117.1500 270° West 138 159 700 -840 Descending Southern California TRACON
12:13AM 32.7264 -117.1603 318° Northwest 146 168 400 -300 Descending Los Angeles Center
12:14AM 32.7381 -117.2031 288° West 144 166 300 -120 Descending Los Angeles Center